Terra Nova, Canada
Current Conditions -  °F | °C
As of 10:00 PM on Wednesday 22 Oct 2014 (Local Time) from CYQX Reporting Station
Overcast Overcast  
Wind Chill: 40°   Ceiling: 3500
Heat Index: 43°   Visibility: 20mi
Dew Point: 37°   Wind: 5mph
Humidity: 81%   Direction: 30°NNE
Pressure: 30.46"   Gusts: NA
Location:  48.5°N, 54.22°W
Report Text: CYQX 230000Z 03004KT 20SM OVC035 06/03 A3046 RMK SC8 SLP321
Loading
Personal Weather Stations






























Interactive Weather Map
Tropical Storm Tracking
New forecast layout! Learn more

10-Day Weather Forecast

Advertisements
Track Severe Weather on mobile